createdAt,value
2023-05-15T00:02:14.340Z,15.50
2023-05-15T00:04:46.627Z,15.50
2023-05-15T00:07:15.022Z,15.50
2023-05-15T00:09:43.443Z,15.40
2023-05-15T00:12:11.862Z,15.30
2023-05-15T00:14:40.142Z,15.30
2023-05-15T00:17:09.991Z,15.20
2023-05-15T00:19:38.422Z,15.10
2023-05-15T00:22:08.293Z,15.00
2023-05-15T00:24:36.712Z,14.90
2023-05-15T00:27:05.550Z,14.90
2023-05-15T00:29:33.937Z,14.80
2023-05-15T00:32:02.362Z,14.70
2023-05-15T00:34:31.175Z,14.70
2023-05-15T00:37:00.257Z,14.60
2023-05-15T00:39:29.842Z,14.60
2023-05-15T00:42:01.831Z,14.50
2023-05-15T00:44:32.185Z,14.50
2023-05-15T00:47:02.440Z,14.40
2023-05-15T00:49:31.223Z,14.50
2023-05-15T00:52:02.074Z,14.30
2023-05-15T00:54:31.777Z,14.30
2023-05-15T00:57:00.954Z,14.20
2023-05-15T00:59:29.744Z,14.20
2023-05-15T01:01:58.045Z,14.20
2023-05-15T01:04:26.333Z,14.20
2023-05-15T01:06:55.201Z,14.10
2023-05-15T01:09:25.755Z,14.00
2023-05-15T01:11:56.850Z,14.00
2023-05-15T01:14:25.113Z,14.00
2023-05-15T01:16:53.624Z,13.70
2023-05-15T01:19:22.056Z,14.00
2023-05-15T01:22:24.962Z,14.00
2023-05-15T01:25:33.427Z,13.90
2023-05-15T01:28:06.581Z,13.90
2023-05-15T01:30:37.471Z,13.90
2023-05-15T01:33:10.071Z,14.00
2023-05-15T01:35:45.069Z,14.00
2023-05-15T01:38:20.264Z,14.00
2023-05-15T01:40:49.847Z,14.10
2023-05-15T01:43:23.234Z,14.10
2023-05-15T01:45:51.498Z,14.10
2023-05-15T01:48:22.250Z,14.20
2023-05-15T01:50:54.392Z,14.20
2023-05-15T01:53:22.784Z,14.20
2023-05-15T01:55:54.379Z,14.30
2023-05-15T01:58:26.483Z,14.30
2023-05-15T02:00:55.148Z,14.40
2023-05-15T02:03:23.611Z,14.40
2023-05-15T02:05:53.256Z,14.40
2023-05-15T02:08:23.035Z,14.40
2023-05-15T02:10:51.932Z,14.40
2023-05-15T02:13:22.843Z,14.50
2023-05-15T02:15:52.618Z,14.50
2023-05-15T02:18:21.052Z,14.50
2023-05-15T02:20:49.331Z,14.50
2023-05-15T02:23:17.688Z,14.50
2023-05-15T02:26:08.931Z,14.60
2023-05-15T02:28:43.952Z,14.50
2023-05-15T02:31:19.135Z,14.50
2023-05-15T02:33:56.602Z,14.50
2023-05-15T02:36:33.280Z,14.60
2023-05-15T02:39:05.997Z,14.60
2023-05-15T02:41:36.468Z,14.30
2023-05-15T02:44:05.958Z,14.50
2023-05-15T02:46:36.231Z,14.70
2023-05-15T02:49:06.155Z,14.60
2023-05-15T02:51:34.727Z,14.70
2023-05-15T02:54:03.267Z,14.70
2023-05-15T02:56:31.603Z,14.70
2023-05-15T02:59:00.068Z,14.70
2023-05-15T03:01:28.467Z,14.80
2023-05-15T03:03:58.149Z,14.80
2023-05-15T03:06:26.401Z,14.80
2023-05-15T03:08:54.706Z,14.80
2023-05-15T03:11:23.008Z,14.80
2023-05-15T03:13:51.236Z,14.80
2023-05-15T03:16:19.597Z,14.80
2023-05-15T03:18:48.071Z,14.80
2023-05-15T03:21:17.715Z,14.80
2023-05-15T03:23:45.973Z,14.80
2023-05-15T03:26:14.209Z,14.70
2023-05-15T03:28:42.580Z,14.70
2023-05-15T03:31:11.049Z,14.70
2023-05-15T03:33:39.523Z,14.70
2023-05-15T03:36:08.547Z,14.70
2023-05-15T03:38:38.200Z,14.70
2023-05-15T03:41:06.556Z,14.70
2023-05-15T03:43:34.799Z,14.60
2023-05-15T03:46:03.152Z,14.60
2023-05-15T03:48:31.465Z,14.60
2023-05-15T03:50:59.788Z,14.60
2023-05-15T03:53:27.989Z,14.60
2023-05-15T03:55:58.326Z,14.60
2023-05-15T03:58:27.576Z,14.60
2023-05-15T04:00:55.955Z,14.60
2023-05-15T04:03:24.637Z,14.60
2023-05-15T04:05:53.219Z,14.60
2023-05-15T04:08:21.573Z,14.70
2023-05-15T04:10:52.485Z,14.70
2023-05-15T04:13:22.399Z,14.70
2023-05-15T04:15:50.653Z,14.70
2023-05-15T04:18:18.929Z,14.80
2023-05-15T04:20:47.225Z,14.70
2023-05-15T04:23:15.438Z,14.80
2023-05-15T04:25:46.598Z,14.80
2023-05-15T04:28:15.113Z,14.80
2023-05-15T04:30:44.932Z,14.90
2023-05-15T04:33:13.800Z,14.90
2023-05-15T04:35:42.369Z,14.90
2023-05-15T04:38:10.676Z,15.00
2023-05-15T04:40:38.992Z,15.00
2023-05-15T04:43:07.333Z,15.10
2023-05-15T04:45:35.653Z,15.10
2023-05-15T04:48:05.830Z,15.10
2023-05-15T04:50:34.244Z,15.10
2023-05-15T04:53:02.515Z,15.10
2023-05-15T04:55:31.908Z,15.10
2023-05-15T04:58:01.933Z,15.10
2023-05-15T05:00:31.051Z,15.20
2023-05-15T05:02:59.386Z,15.20
2023-05-15T05:05:29.166Z,15.30
2023-05-15T05:07:57.402Z,15.40
2023-05-15T05:10:25.519Z,15.50
2023-05-15T05:12:53.706Z,15.50
2023-05-15T05:15:21.978Z,15.60
2023-05-15T05:17:50.321Z,15.70
2023-05-15T05:20:18.785Z,15.60
2023-05-15T05:22:48.514Z,15.80
2023-05-15T05:25:16.875Z,15.80
2023-05-15T05:27:45.235Z,15.90
2023-05-15T05:30:14.232Z,16.00
2023-05-15T05:32:42.806Z,16.00
2023-05-15T05:35:11.086Z,16.20
2023-05-15T05:37:41.242Z,16.20
2023-05-15T05:40:12.367Z,16.20
2023-05-15T05:42:40.657Z,16.30
2023-05-15T05:45:09.760Z,16.40
2023-05-15T05:47:37.907Z,16.40
2023-05-15T05:50:07.670Z,16.50
2023-05-15T05:52:35.863Z,16.40
2023-05-15T05:55:04.234Z,16.50
2023-05-15T05:57:33.996Z,16.60
2023-05-15T06:00:02.518Z,16.70
2023-05-15T06:02:38.238Z,16.80
2023-05-15T06:05:08.591Z,16.90
2023-05-15T06:07:36.965Z,17.00
2023-05-15T06:10:07.575Z,17.10
2023-05-15T06:12:37.563Z,17.20
2023-05-15T06:15:06.959Z,17.20
2023-05-15T06:17:35.520Z,17.30
2023-05-15T06:20:05.756Z,17.30
2023-05-15T06:22:34.022Z,17.30
2023-05-15T06:25:03.097Z,17.30
2023-05-15T06:27:31.390Z,17.40
2023-05-15T06:30:01.653Z,17.50
2023-05-15T06:32:33.122Z,17.60
2023-05-15T06:35:03.051Z,17.70
2023-05-15T06:37:35.167Z,17.80
2023-05-15T06:40:03.894Z,17.80
2023-05-15T06:42:32.297Z,17.90
2023-05-15T06:45:03.168Z,17.90
2023-05-15T06:47:32.203Z,17.90
2023-05-15T06:50:00.653Z,17.90
2023-05-15T06:52:28.985Z,17.90
2023-05-15T06:54:57.201Z,17.90
2023-05-15T06:57:26.393Z,17.90
2023-05-15T06:59:56.545Z,18.00
2023-05-15T07:02:26.379Z,17.90
2023-05-15T07:04:54.803Z,17.90
2023-05-15T07:07:23.440Z,17.80
2023-05-15T07:09:51.760Z,17.80
2023-05-15T07:12:37.220Z,17.90
2023-05-15T07:15:10.187Z,18.10
2023-05-15T07:17:40.165Z,18.20
2023-05-15T07:20:10.322Z,18.30
2023-05-15T07:22:47.991Z,18.40
2023-05-15T07:25:23.377Z,18.40
2023-05-15T07:28:03.172Z,18.40
2023-05-15T07:30:32.490Z,18.60
2023-05-15T07:33:02.365Z,18.70
2023-05-15T07:35:30.879Z,18.80
2023-05-15T07:37:59.187Z,18.90
2023-05-15T07:40:27.302Z,19.00
2023-05-15T07:42:55.926Z,19.10
2023-05-15T07:45:24.414Z,19.30
2023-05-15T07:47:53.359Z,19.30
2023-05-15T07:50:23.406Z,19.30
2023-05-15T07:52:52.030Z,19.30
2023-05-15T07:55:20.630Z,19.20
2023-05-15T07:57:53.453Z,19.30
2023-05-15T08:00:23.073Z,19.30
2023-05-15T08:02:51.677Z,19.20
2023-05-15T08:05:20.395Z,19.20
2023-05-15T08:07:50.056Z,19.20
2023-05-15T08:10:20.439Z,19.20
2023-05-15T08:12:50.423Z,19.20
2023-05-15T08:15:19.432Z,19.30
2023-05-15T08:17:47.996Z,19.40
2023-05-15T08:20:18.243Z,19.50
2023-05-15T08:22:46.542Z,19.60
2023-05-15T08:25:16.571Z,19.60
2023-05-15T08:27:45.265Z,19.70
2023-05-15T08:30:15.853Z,19.70
2023-05-15T08:32:46.140Z,19.70
2023-05-15T08:35:14.849Z,19.70
2023-05-15T08:37:43.109Z,19.70
2023-05-15T08:40:12.633Z,19.70
2023-05-15T08:42:46.359Z,19.80
2023-05-15T08:45:15.728Z,19.80
2023-05-15T08:47:44.678Z,19.80
2023-05-15T08:50:15.345Z,19.80
2023-05-15T08:52:46.987Z,19.80
2023-05-15T08:55:15.955Z,19.80
2023-05-15T08:57:46.499Z,19.80
2023-05-15T09:00:16.568Z,19.80
2023-05-15T09:02:44.845Z,19.80
2023-05-15T09:05:13.352Z,19.70
2023-05-15T09:07:42.937Z,19.70
2023-05-15T09:10:11.833Z,19.60
2023-05-15T09:12:43.905Z,19.60
2023-05-15T09:15:17.424Z,19.60
2023-05-15T09:17:46.753Z,19.70
2023-05-15T09:20:29.657Z,19.80
2023-05-15T09:22:58.664Z,19.80
2023-05-15T09:25:41.756Z,19.90
2023-05-15T09:28:11.961Z,20.00
2023-05-15T09:30:45.719Z,20.10
2023-05-15T09:33:14.580Z,20.30
2023-05-15T09:35:42.904Z,20.40
2023-05-15T09:38:13.068Z,20.80
2023-05-15T09:40:41.928Z,21.00
2023-05-15T09:43:12.208Z,21.30
2023-05-15T09:45:43.354Z,21.50
2023-05-15T09:48:12.493Z,21.70
2023-05-15T09:50:42.567Z,21.80
2023-05-15T09:53:14.032Z,22.00
2023-05-15T09:55:44.283Z,22.10
2023-05-15T09:58:16.578Z,22.20
2023-05-15T10:00:49.759Z,22.30
2023-05-15T10:03:24.623Z,22.40
2023-05-15T10:06:01.611Z,22.40
2023-05-15T10:08:32.778Z,22.40
2023-05-15T10:11:14.294Z,22.30
2023-05-15T10:13:47.754Z,22.30
2023-05-15T10:16:24.247Z,22.20
2023-05-15T10:18:53.577Z,22.40
2023-05-15T10:21:23.818Z,22.50
2023-05-15T10:23:55.118Z,22.60
2023-05-15T10:26:29.589Z,22.60
2023-05-15T10:28:58.692Z,22.70
2023-05-15T10:31:30.447Z,22.80
2023-05-15T10:33:59.744Z,23.00
2023-05-15T10:36:29.723Z,23.20
2023-05-15T10:38:58.840Z,23.30
2023-05-15T10:41:30.380Z,23.40
2023-05-15T10:44:01.484Z,23.60
2023-05-15T10:46:35.626Z,23.80
2023-05-15T10:49:04.587Z,23.90
2023-05-15T10:51:36.315Z,23.90
2023-05-15T10:54:07.741Z,23.90
2023-05-15T10:56:38.535Z,23.90
2023-05-15T10:59:10.412Z,23.90
2023-05-15T11:01:44.222Z,23.80
2023-05-15T11:04:14.439Z,23.60
2023-05-15T11:06:44.909Z,23.50
2023-05-15T11:09:39.007Z,23.30
2023-05-15T11:12:10.173Z,23.30
2023-05-15T11:14:40.967Z,23.40
2023-05-15T11:17:15.572Z,23.60
2023-05-15T11:20:11.733Z,23.80
2023-05-15T11:22:42.049Z,24.30
2023-05-15T11:25:13.699Z,24.60
2023-05-15T11:27:47.221Z,24.70
2023-05-15T11:30:20.432Z,24.80
2023-05-15T11:33:18.773Z,25.20
2023-05-15T11:35:51.050Z,25.50
2023-05-15T11:38:41.939Z,25.60
2023-05-15T11:41:24.363Z,25.60
2023-05-15T11:44:10.932Z,25.30
2023-05-15T11:46:41.631Z,24.90
2023-05-15T11:49:13.722Z,24.50
2023-05-15T11:54:25.899Z,23.70
2023-05-15T11:57:00.816Z,23.20
2023-05-15T12:02:33.728Z,22.10
2023-05-15T12:05:05.045Z,21.50
2023-05-15T12:07:43.167Z,20.90
2023-05-15T12:10:15.120Z,20.10
2023-05-15T12:12:55.463Z,19.40
2023-05-15T12:15:28.467Z,19.10
2023-05-15T12:18:00.364Z,18.80
2023-05-15T12:20:37.997Z,18.70
2023-05-15T12:23:11.403Z,18.70
2023-05-15T12:25:41.305Z,18.80
2023-05-15T12:28:36.974Z,19.10
2023-05-15T12:31:08.288Z,19.30
2023-05-15T12:33:38.539Z,19.40
2023-05-15T12:36:13.545Z,19.40
2023-05-15T12:38:46.152Z,19.60
2023-05-15T12:41:14.799Z,19.70
2023-05-15T12:43:43.441Z,19.90
2023-05-15T12:46:15.017Z,20.20
2023-05-15T12:48:43.627Z,20.50
2023-05-15T12:51:16.544Z,21.00
2023-05-15T12:53:47.904Z,21.90
2023-05-15T12:56:19.382Z,23.50
2023-05-15T12:58:49.487Z,25.20
2023-05-15T13:01:18.746Z,26.40
2023-05-15T13:03:48.932Z,26.90
2023-05-15T13:06:19.210Z,27.10
2023-05-15T13:08:49.056Z,27.00
2023-05-15T13:11:19.223Z,26.80
2023-05-15T13:13:49.527Z,26.50
2023-05-15T13:16:23.053Z,26.10
2023-05-15T13:18:51.637Z,25.50
2023-05-15T13:21:23.166Z,24.80
2023-05-15T13:23:55.480Z,23.90
2023-05-15T13:26:23.894Z,23.30
2023-05-15T13:28:52.325Z,22.80
2023-05-15T13:31:20.750Z,22.50
2023-05-15T13:33:49.466Z,22.20
2023-05-15T13:36:17.949Z,22.10
2023-05-15T13:38:47.747Z,22.00
2023-05-15T13:41:16.006Z,21.90
2023-05-15T13:43:44.466Z,21.80
2023-05-15T13:46:12.800Z,21.80
2023-05-15T13:48:41.316Z,21.80
2023-05-15T13:51:09.790Z,21.80
2023-05-15T13:53:38.248Z,22.00
2023-05-15T13:56:10.185Z,22.10
2023-05-15T13:58:40.381Z,22.30
2023-05-15T14:01:08.814Z,22.90
2023-05-15T14:03:45.165Z,23.50
2023-05-15T14:06:13.542Z,23.80
2023-05-15T14:08:41.780Z,23.80
2023-05-15T14:11:12.053Z,23.80
2023-05-15T14:13:42.365Z,24.30
2023-05-15T14:16:10.640Z,24.80
2023-05-15T14:18:39.016Z,25.20
2023-05-15T14:21:07.324Z,25.30
2023-05-15T14:23:37.379Z,25.20
2023-05-15T14:26:06.101Z,25.00
2023-05-15T14:28:38.652Z,25.30
2023-05-15T14:31:06.976Z,26.40
2023-05-15T14:33:35.397Z,27.80
2023-05-15T14:36:04.748Z,28.70
2023-05-15T14:38:33.611Z,28.70
2023-05-15T14:41:02.177Z,28.90
2023-05-15T14:43:30.376Z,29.10
2023-05-15T14:46:00.508Z,29.40
2023-05-15T14:48:30.663Z,29.60
2023-05-15T14:50:59.880Z,29.40
2023-05-15T14:53:28.387Z,28.70
2023-05-15T14:55:58.725Z,28.60
2023-05-15T14:58:27.550Z,29.10
2023-05-15T15:00:56.103Z,29.90
2023-05-15T15:03:28.659Z,30.90
2023-05-15T15:05:57.902Z,31.70
2023-05-15T15:08:26.545Z,32.50
2023-05-15T15:10:54.876Z,33.20
2023-05-15T15:13:24.217Z,33.70
2023-05-15T15:15:52.806Z,34.10
2023-05-15T15:18:22.141Z,34.40
2023-05-15T15:20:52.084Z,34.60
2023-05-15T15:23:21.017Z,34.70
2023-05-15T15:25:49.332Z,34.30
2023-05-15T15:28:18.534Z,33.60
2023-05-15T15:30:47.582Z,32.90
2023-05-15T15:33:16.125Z,32.20
2023-05-15T15:35:44.603Z,31.50
2023-05-15T15:38:14.233Z,30.90
2023-05-15T15:40:42.619Z,30.20
2023-05-15T15:43:10.932Z,29.50
2023-05-15T15:45:39.458Z,28.90
2023-05-15T15:48:07.853Z,28.30
2023-05-15T15:50:36.509Z,27.30
2023-05-15T15:53:04.658Z,26.20
2023-05-15T15:55:34.640Z,25.10
2023-05-15T15:58:02.897Z,24.20
2023-05-15T16:00:31.925Z,23.50
2023-05-15T16:03:00.285Z,23.00
2023-05-15T16:05:29.231Z,22.50
2023-05-15T16:07:58.128Z,21.70
2023-05-15T16:10:27.107Z,20.60
2023-05-15T16:12:56.977Z,19.60
2023-05-15T16:15:25.604Z,18.80
2023-05-15T16:17:54.980Z,18.30
2023-05-15T16:20:24.647Z,18.00
2023-05-15T16:22:53.443Z,17.80
2023-05-15T16:25:21.978Z,17.80
2023-05-15T16:27:50.508Z,17.90
2023-05-15T16:30:20.516Z,17.90
2023-05-15T16:32:48.845Z,18.10
2023-05-15T16:35:22.342Z,18.10
2023-05-15T16:37:51.369Z,18.30
2023-05-15T16:40:20.247Z,18.40
2023-05-15T16:42:48.701Z,18.50
2023-05-15T16:45:17.207Z,18.60
2023-05-15T16:47:50.786Z,18.60
2023-05-15T16:50:19.401Z,18.70
2023-05-15T16:52:49.083Z,18.60
2023-05-15T16:55:18.632Z,18.50
2023-05-15T16:57:47.211Z,18.50
2023-05-15T17:00:16.810Z,18.40
2023-05-15T17:02:46.512Z,18.30
2023-05-15T17:05:15.366Z,18.00
2023-05-15T17:07:45.291Z,17.70
2023-05-15T17:10:14.169Z,17.40
2023-05-15T17:12:42.558Z,17.30
2023-05-15T17:15:12.577Z,17.20
2023-05-15T17:17:40.983Z,17.30
2023-05-15T17:20:13.239Z,17.40
2023-05-15T17:22:41.974Z,17.50
2023-05-15T17:25:11.924Z,17.60
2023-05-15T17:27:41.581Z,17.60
2023-05-15T17:30:11.417Z,17.70
2023-05-15T17:32:40.805Z,17.80
2023-05-15T17:35:11.589Z,17.80
2023-05-15T17:37:40.464Z,17.80
2023-05-15T17:40:09.679Z,18.00
2023-05-15T17:42:38.283Z,18.00
2023-05-15T17:45:07.683Z,18.00
2023-05-15T17:47:36.249Z,18.00
2023-05-15T17:50:05.627Z,18.00
2023-05-15T17:52:37.392Z,17.90
2023-05-15T17:55:07.435Z,18.00
2023-05-15T17:57:50.402Z,18.00
2023-05-15T18:00:22.426Z,18.00
2023-05-15T18:02:51.313Z,18.00
2023-05-15T18:05:19.811Z,17.80
2023-05-15T18:07:49.946Z,17.80
2023-05-15T18:10:26.214Z,17.70
2023-05-15T18:13:00.039Z,17.70
2023-05-15T18:15:28.864Z,17.70
2023-05-15T18:17:57.472Z,17.60
2023-05-15T18:20:26.440Z,17.50
2023-05-15T18:23:02.365Z,17.50
2023-05-15T18:25:49.987Z,17.40
2023-05-15T18:28:18.813Z,17.30
2023-05-15T18:30:47.662Z,17.20
2023-05-15T18:33:47.810Z,17.20
2023-05-15T18:36:07.573Z,17.20
2023-05-15T18:38:37.933Z,17.30
2023-05-15T18:41:09.768Z,17.30
2023-05-15T18:43:38.154Z,17.30
2023-05-15T18:46:07.212Z,17.40
2023-05-15T18:48:35.668Z,17.40
2023-05-15T18:51:16.458Z,17.40
2023-05-15T18:53:48.011Z,17.40
2023-05-15T18:59:15.902Z,17.30
2023-05-15T19:01:45.286Z,17.20
2023-05-15T19:04:18.036Z,17.20
2023-05-15T19:06:48.347Z,17.10
2023-05-15T19:09:19.184Z,17.00
2023-05-15T19:11:53.059Z,17.00
2023-05-15T19:14:21.779Z,16.90
2023-05-15T19:16:54.343Z,16.90
2023-05-15T19:19:23.248Z,16.90
2023-05-15T19:21:52.305Z,16.80
2023-05-15T19:24:22.285Z,16.90
2023-05-15T19:26:50.957Z,16.90
2023-05-15T19:29:19.307Z,16.90
2023-05-15T19:31:48.137Z,16.90
2023-05-15T19:34:17.198Z,16.90
2023-05-15T19:36:46.751Z,16.80
2023-05-15T19:39:15.380Z,16.80
2023-05-15T19:41:53.329Z,16.70
2023-05-15T19:44:24.129Z,16.70
2023-05-15T19:46:55.860Z,16.70
2023-05-15T19:49:27.659Z,16.70
2023-05-15T19:51:56.279Z,16.70
2023-05-15T19:54:38.366Z,16.70
2023-05-15T19:57:10.231Z,16.50
2023-05-15T19:59:38.825Z,16.50
2023-05-15T20:02:10.450Z,16.40
2023-05-15T20:04:39.161Z,16.40
2023-05-15T20:07:07.876Z,16.40
2023-05-15T20:09:43.482Z,16.30
2023-05-15T20:12:15.887Z,16.30
2023-05-15T20:14:53.149Z,16.20
2023-05-15T20:17:45.322Z,16.30
2023-05-15T20:20:14.320Z,16.20
2023-05-15T20:22:45.324Z,16.20
2023-05-15T20:25:15.372Z,16.10
2023-05-15T20:27:47.861Z,16.00
2023-05-15T20:30:24.318Z,15.80
2023-05-15T20:32:58.714Z,16.00
2023-05-15T20:35:29.946Z,16.00
2023-05-15T20:38:06.285Z,16.00
2023-05-15T20:40:40.406Z,15.90
2023-05-15T20:43:10.420Z,15.90
2023-05-15T20:45:40.133Z,15.80
2023-05-15T20:48:11.273Z,15.80
2023-05-15T20:50:40.005Z,15.80
2023-05-15T20:53:11.310Z,15.90
2023-05-15T20:55:40.143Z,15.90
2023-05-15T20:58:10.134Z,15.90
2023-05-15T21:00:39.176Z,15.80
2023-05-15T21:03:07.688Z,16.00
2023-05-15T21:05:36.410Z,16.00
2023-05-15T21:08:04.767Z,16.00
2023-05-15T21:10:33.706Z,15.80
2023-05-15T21:13:03.130Z,16.00
2023-05-15T21:15:34.593Z,16.10
2023-05-15T21:18:03.632Z,16.00
2023-05-15T21:20:32.943Z,16.00
2023-05-15T21:23:03.409Z,15.90
2023-05-15T21:25:31.860Z,15.90
2023-05-15T21:28:00.411Z,16.00
2023-05-15T21:30:29.174Z,15.90
2023-05-15T21:32:59.252Z,15.90
2023-05-15T21:35:29.143Z,15.80
2023-05-15T21:37:57.399Z,15.80
2023-05-15T21:40:26.056Z,15.70
2023-05-15T21:42:54.946Z,15.70
2023-05-15T21:45:23.707Z,15.60
2023-05-15T21:47:52.116Z,15.60
2023-05-15T21:50:22.141Z,15.60
2023-05-15T21:52:51.797Z,15.50
2023-05-15T21:55:20.414Z,15.50
2023-05-15T21:57:48.697Z,15.50
2023-05-15T22:00:17.895Z,15.30
2023-05-15T22:02:46.300Z,15.50
2023-05-15T22:05:15.302Z,15.40
2023-05-15T22:07:45.679Z,15.40
2023-05-15T22:10:16.509Z,15.40
2023-05-15T22:12:45.229Z,15.40
2023-05-15T22:15:14.651Z,15.40
2023-05-15T22:17:42.968Z,15.40
2023-05-15T22:20:13.364Z,15.30
2023-05-15T22:22:44.979Z,15.30
2023-05-15T22:25:13.649Z,15.30
2023-05-15T22:27:42.713Z,15.30
2023-05-15T22:30:11.562Z,15.20
2023-05-15T22:32:41.249Z,15.20
2023-05-15T22:35:11.104Z,15.20
2023-05-15T22:37:41.128Z,15.10
2023-05-15T22:40:12.850Z,15.10
2023-05-15T22:42:41.213Z,15.10
2023-05-15T22:45:11.537Z,15.00
2023-05-15T22:47:40.198Z,14.90
2023-05-15T22:50:09.867Z,15.00
2023-05-15T22:52:39.115Z,14.90
2023-05-15T22:55:10.417Z,14.90
2023-05-15T22:57:40.237Z,14.90
2023-05-15T23:00:10.085Z,14.80
2023-05-15T23:02:43.485Z,14.80
2023-05-15T23:05:13.341Z,14.80
2023-05-15T23:07:41.584Z,14.80
2023-05-15T23:10:10.848Z,14.80
2023-05-15T23:12:41.045Z,14.80
2023-05-15T23:15:11.375Z,14.80
2023-05-15T23:17:41.490Z,14.80
2023-05-15T23:20:12.950Z,14.80
2023-05-15T23:22:41.196Z,14.70
2023-05-15T23:25:10.329Z,14.70
2023-05-15T23:27:39.923Z,14.40
2023-05-15T23:30:09.949Z,14.70
2023-05-15T23:32:38.150Z,14.60
2023-05-15T23:35:07.271Z,14.60
2023-05-15T23:37:35.912Z,14.60
2023-05-15T23:40:05.955Z,14.60
2023-05-15T23:42:34.126Z,14.60
2023-05-15T23:45:03.804Z,14.50
2023-05-15T23:47:32.040Z,14.50
2023-05-15T23:50:00.391Z,14.50
2023-05-15T23:52:28.650Z,14.40
2023-05-15T23:54:57.023Z,14.40
2023-05-15T23:57:25.390Z,14.40
2023-05-15T23:59:53.667Z,14.40
